sensor_id;sensor_type;location;lat;lon;timestamp;P1;durP1;ratioP1;P2;durP2;ratioP2
17372;SDS011;8803;48.116;11.590;2023-04-16T00:01:00;1.90;;;1.80;;
17372;SDS011;8803;48.116;11.590;2023-04-16T00:03:13;2.23;;;2.03;;
17372;SDS011;8803;48.116;11.590;2023-04-16T00:05:16;2.13;;;1.93;;
17372;SDS011;8803;48.116;11.590;2023-04-16T00:07:20;2.83;;;2.20;;
17372;SDS011;8803;48.116;11.590;2023-04-16T00:09:24;2.40;;;2.20;;
17372;SDS011;8803;48.116;11.590;2023-04-16T00:11:28;3.03;;;2.13;;
17372;SDS011;8803;48.116;11.590;2023-04-16T00:13:40;2.43;;;2.23;;
17372;SDS011;8803;48.116;11.590;2023-04-16T00:15:44;2.30;;;2.10;;
17372;SDS011;8803;48.116;11.590;2023-04-16T00:17:48;2.40;;;2.20;;
17372;SDS011;8803;48.116;11.590;2023-04-16T00:19:52;2.77;;;2.53;;
17372;SDS011;8803;48.116;11.590;2023-04-16T00:22:05;2.73;;;2.53;;
17372;SDS011;8803;48.116;11.590;2023-04-16T00:24:08;2.60;;;2.40;;
17372;SDS011;8803;48.116;11.590;2023-04-16T00:26:21;3.20;;;2.90;;
17372;SDS011;8803;48.116;11.590;2023-04-16T00:28:25;2.97;;;2.70;;
17372;SDS011;8803;48.116;11.590;2023-04-16T00:30:29;3.30;;;3.00;;
17372;SDS011;8803;48.116;11.590;2023-04-16T00:32:32;3.97;;;3.00;;
17372;SDS011;8803;48.116;11.590;2023-04-16T00:34:45;2.60;;;2.40;;
17372;SDS011;8803;48.116;11.590;2023-04-16T00:36:49;3.07;;;2.77;;
17372;SDS011;8803;48.116;11.590;2023-04-16T00:38:53;3.87;;;2.90;;
17372;SDS011;8803;48.116;11.590;2023-04-16T00:40:58;3.17;;;2.87;;
17372;SDS011;8803;48.116;11.590;2023-04-16T00:43:10;3.40;;;3.10;;
17372;SDS011;8803;48.116;11.590;2023-04-16T00:45:19;3.80;;;3.00;;
17372;SDS011;8803;48.116;11.590;2023-04-16T00:47:32;3.30;;;2.87;;
17372;SDS011;8803;48.116;11.590;2023-04-16T00:49:36;2.80;;;2.60;;
17372;SDS011;8803;48.116;11.590;2023-04-16T00:51:50;3.70;;;3.00;;
17372;SDS011;8803;48.116;11.590;2023-04-16T00:53:54;3.37;;;3.07;;
17372;SDS011;8803;48.116;11.590;2023-04-16T00:56:07;3.20;;;2.90;;
17372;SDS011;8803;48.116;11.590;2023-04-16T00:58:11;3.10;;;2.90;;
17372;SDS011;8803;48.116;11.590;2023-04-16T01:00:16;3.17;;;2.90;;
17372;SDS011;8803;48.116;11.590;2023-04-16T01:02:20;3.63;;;3.10;;
17372;SDS011;8803;48.116;11.590;2023-04-16T01:04:32;2.97;;;2.77;;
17372;SDS011;8803;48.116;11.590;2023-04-16T01:06:37;3.40;;;3.10;;
17372;SDS011;8803;48.116;11.590;2023-04-16T01:08:41;3.40;;;3.10;;
17372;SDS011;8803;48.116;11.590;2023-04-16T01:13:01;3.40;;;3.10;;
17372;SDS011;8803;48.116;11.590;2023-04-16T01:15:06;3.50;;;3.20;;
17372;SDS011;8803;48.116;11.590;2023-04-16T01:17:19;3.67;;;3.13;;
17372;SDS011;8803;48.116;11.590;2023-04-16T01:19:23;3.40;;;3.10;;
17372;SDS011;8803;48.116;11.590;2023-04-16T01:21:27;3.40;;;3.10;;
17372;SDS011;8803;48.116;11.590;2023-04-16T01:23:32;2.77;;;2.47;;
17372;SDS011;8803;48.116;11.590;2023-04-16T01:25:36;3.50;;;3.00;;
17372;SDS011;8803;48.116;11.590;2023-04-16T01:27:40;3.17;;;2.83;;
17372;SDS011;8803;48.116;11.590;2023-04-16T01:29:44;3.23;;;2.93;;
17372;SDS011;8803;48.116;11.590;2023-04-16T01:34:03;3.90;;;3.50;;
17372;SDS011;8803;48.116;11.590;2023-04-16T01:36:07;3.53;;;3.23;;
17372;SDS011;8803;48.116;11.590;2023-04-16T01:38:11;3.97;;;2.90;;
17372;SDS011;8803;48.116;11.590;2023-04-16T01:40:15;3.57;;;3.27;;
17372;SDS011;8803;48.116;11.590;2023-04-16T01:42:19;2.93;;;2.73;;
17372;SDS011;8803;48.116;11.590;2023-04-16T01:44:32;3.20;;;2.90;;
17372;SDS011;8803;48.116;11.590;2023-04-16T01:46:36;4.37;;;3.17;;
17372;SDS011;8803;48.116;11.590;2023-04-16T01:48:40;3.60;;;3.30;;
17372;SDS011;8803;48.116;11.590;2023-04-16T01:50:44;3.80;;;3.50;;
17372;SDS011;8803;48.116;11.590;2023-04-16T01:53:02;3.33;;;3.03;;
17372;SDS011;8803;48.116;11.590;2023-04-16T01:55:06;3.63;;;3.30;;
17372;SDS011;8803;48.116;11.590;2023-04-16T01:57:19;3.20;;;3.00;;
17372;SDS011;8803;48.116;11.590;2023-04-16T01:59:23;3.93;;;3.57;;
17372;SDS011;8803;48.116;11.590;2023-04-16T02:01:26;3.43;;;3.13;;
17372;SDS011;8803;48.116;11.590;2023-04-16T02:03:31;3.33;;;3.00;;
17372;SDS011;8803;48.116;11.590;2023-04-16T02:05:44;3.60;;;3.30;;
17372;SDS011;8803;48.116;11.590;2023-04-16T02:07:48;3.67;;;3.37;;
17372;SDS011;8803;48.116;11.590;2023-04-16T02:09:52;3.43;;;3.13;;
17372;SDS011;8803;48.116;11.590;2023-04-16T02:11:58;3.37;;;3.00;;
17372;SDS011;8803;48.116;11.590;2023-04-16T02:14:16;3.40;;;3.10;;
17372;SDS011;8803;48.116;11.590;2023-04-16T02:16:21;3.50;;;3.20;;
17372;SDS011;8803;48.116;11.590;2023-04-16T02:18:26;4.00;;;3.00;;
17372;SDS011;8803;48.116;11.590;2023-04-16T02:20:30;2.77;;;2.57;;
17372;SDS011;8803;48.116;11.590;2023-04-16T02:22:34;3.17;;;2.87;;
17372;SDS011;8803;48.116;11.590;2023-04-16T02:26:53;3.80;;;3.13;;
17372;SDS011;8803;48.116;11.590;2023-04-16T02:28:57;3.87;;;3.40;;
17372;SDS011;8803;48.116;11.590;2023-04-16T02:31:09;4.50;;;3.17;;
17372;SDS011;8803;48.116;11.590;2023-04-16T02:33:13;4.10;;;3.70;;
17372;SDS011;8803;48.116;11.590;2023-04-16T02:35:27;3.77;;;3.47;;
17372;SDS011;8803;48.116;11.590;2023-04-16T02:37:31;3.33;;;3.03;;
17372;SDS011;8803;48.116;11.590;2023-04-16T02:39:35;3.70;;;3.40;;
17372;SDS011;8803;48.116;11.590;2023-04-16T02:41:39;3.50;;;3.20;;
17372;SDS011;8803;48.116;11.590;2023-04-16T02:43:52;3.50;;;3.20;;
17372;SDS011;8803;48.116;11.590;2023-04-16T02:45:56;3.90;;;3.60;;
17372;SDS011;8803;48.116;11.590;2023-04-16T02:48:00;3.80;;;3.43;;
17372;SDS011;8803;48.116;11.590;2023-04-16T02:50:04;4.00;;;3.60;;
17372;SDS011;8803;48.116;11.590;2023-04-16T02:52:09;3.67;;;3.37;;
17372;SDS011;8803;48.116;11.590;2023-04-16T02:54:22;3.73;;;3.33;;
17372;SDS011;8803;48.116;11.590;2023-04-16T02:56:26;3.40;;;3.10;;
17372;SDS011;8803;48.116;11.590;2023-04-16T02:58:30;3.30;;;3.00;;
17372;SDS011;8803;48.116;11.590;2023-04-16T03:00:34;3.47;;;3.17;;
17372;SDS011;8803;48.116;11.590;2023-04-16T03:02:39;4.93;;;3.50;;
17372;SDS011;8803;48.116;11.590;2023-04-16T03:04:53;3.90;;;3.50;;
17372;SDS011;8803;48.116;11.590;2023-04-16T03:06:56;3.87;;;3.47;;
17372;SDS011;8803;48.116;11.590;2023-04-16T03:09:01;4.10;;;3.70;;
17372;SDS011;8803;48.116;11.590;2023-04-16T03:11:04;3.50;;;3.20;;
17372;SDS011;8803;48.116;11.590;2023-04-16T03:13:18;3.30;;;3.00;;
17372;SDS011;8803;48.116;11.590;2023-04-16T03:15:22;3.70;;;3.30;;
17372;SDS011;8803;48.116;11.590;2023-04-16T03:17:26;3.77;;;3.40;;
17372;SDS011;8803;48.116;11.590;2023-04-16T03:19:30;3.47;;;3.20;;
17372;SDS011;8803;48.116;11.590;2023-04-16T03:21:33;3.07;;;2.77;;
17372;SDS011;8803;48.116;11.590;2023-04-16T03:23:46;3.20;;;2.90;;
17372;SDS011;8803;48.116;11.590;2023-04-16T03:25:50;3.80;;;2.83;;
17372;SDS011;8803;48.116;11.590;2023-04-16T03:27:54;2.83;;;2.60;;
17372;SDS011;8803;48.116;11.590;2023-04-16T03:29:57;3.17;;;2.80;;
17372;SDS011;8803;48.116;11.590;2023-04-16T03:32:01;3.00;;;2.70;;
17372;SDS011;8803;48.116;11.590;2023-04-16T03:34:14;3.33;;;2.73;;
17372;SDS011;8803;48.116;11.590;2023-04-16T03:36:18;3.23;;;2.93;;
17372;SDS011;8803;48.116;11.590;2023-04-16T03:38:32;2.23;;;2.03;;
17372;SDS011;8803;48.116;11.590;2023-04-16T03:40:36;3.20;;;2.90;;
17372;SDS011;8803;48.116;11.590;2023-04-16T03:42:50;3.40;;;2.50;;
17372;SDS011;8803;48.116;11.590;2023-04-16T03:44:53;3.13;;;2.80;;
17372;SDS011;8803;48.116;11.590;2023-04-16T03:47:06;3.80;;;2.30;;
17372;SDS011;8803;48.116;11.590;2023-04-16T03:49:10;2.60;;;2.40;;
17372;SDS011;8803;48.116;11.590;2023-04-16T03:51:14;2.57;;;2.37;;
17372;SDS011;8803;48.116;11.590;2023-04-16T03:53:28;2.53;;;2.33;;
17372;SDS011;8803;48.116;11.590;2023-04-16T03:55:32;2.97;;;2.67;;
17372;SDS011;8803;48.116;11.590;2023-04-16T03:57:36;2.73;;;2.50;;
17372;SDS011;8803;48.116;11.590;2023-04-16T03:59:49;2.50;;;2.30;;
17372;SDS011;8803;48.116;11.590;2023-04-16T04:04:06;2.80;;;2.60;;
17372;SDS011;8803;48.116;11.590;2023-04-16T04:06:10;2.70;;;2.50;;
17372;SDS011;8803;48.116;11.590;2023-04-16T04:08:13;2.67;;;2.30;;
17372;SDS011;8803;48.116;11.590;2023-04-16T04:10:17;2.50;;;2.30;;
17372;SDS011;8803;48.116;11.590;2023-04-16T04:12:21;2.43;;;2.23;;
17372;SDS011;8803;48.116;11.590;2023-04-16T04:14:33;2.50;;;2.30;;
17372;SDS011;8803;48.116;11.590;2023-04-16T04:16:39;2.57;;;2.37;;
17372;SDS011;8803;48.116;11.590;2023-04-16T04:18:43;2.73;;;2.53;;
17372;SDS011;8803;48.116;11.590;2023-04-16T04:20:47;2.40;;;2.20;;
17372;SDS011;8803;48.116;11.590;2023-04-16T04:23:02;2.87;;;2.67;;
17372;SDS011;8803;48.116;11.590;2023-04-16T04:25:06;3.00;;;2.80;;
17372;SDS011;8803;48.116;11.590;2023-04-16T04:27:11;2.80;;;2.60;;
17372;SDS011;8803;48.116;11.590;2023-04-16T04:29:15;3.17;;;2.87;;
17372;SDS011;8803;48.116;11.590;2023-04-16T04:31:18;2.77;;;2.57;;
17372;SDS011;8803;48.116;11.590;2023-04-16T04:33:22;2.70;;;2.50;;
17372;SDS011;8803;48.116;11.590;2023-04-16T04:35:35;3.07;;;2.87;;
17372;SDS011;8803;48.116;11.590;2023-04-16T04:37:39;2.43;;;2.23;;
17372;SDS011;8803;48.116;11.590;2023-04-16T04:39:43;2.93;;;2.73;;
17372;SDS011;8803;48.116;11.590;2023-04-16T04:41:47;2.70;;;2.40;;
17372;SDS011;8803;48.116;11.590;2023-04-16T04:44:01;2.83;;;2.63;;
17372;SDS011;8803;48.116;11.590;2023-04-16T04:46:04;2.90;;;2.40;;
17372;SDS011;8803;48.116;11.590;2023-04-16T04:48:08;2.73;;;2.53;;
17372;SDS011;8803;48.116;11.590;2023-04-16T04:50:12;3.30;;;3.00;;
17372;SDS011;8803;48.116;11.590;2023-04-16T04:52:25;2.60;;;2.40;;
17372;SDS011;8803;48.116;11.590;2023-04-16T04:54:29;2.50;;;2.30;;
17372;SDS011;8803;48.116;11.590;2023-04-16T04:56:43;2.40;;;2.20;;
17372;SDS011;8803;48.116;11.590;2023-04-16T04:58:48;2.90;;;2.70;;
17372;SDS011;8803;48.116;11.590;2023-04-16T05:01:00;2.77;;;2.57;;
17372;SDS011;8803;48.116;11.590;2023-04-16T05:03:05;2.53;;;2.33;;
17372;SDS011;8803;48.116;11.590;2023-04-16T05:05:21;2.83;;;2.63;;
17372;SDS011;8803;48.116;11.590;2023-04-16T05:07:25;2.80;;;2.60;;
17372;SDS011;8803;48.116;11.590;2023-04-16T05:09:28;3.03;;;2.73;;
17372;SDS011;8803;48.116;11.590;2023-04-16T05:13:44;2.60;;;2.40;;
17372;SDS011;8803;48.116;11.590;2023-04-16T05:15:48;2.83;;;2.63;;
17372;SDS011;8803;48.116;11.590;2023-04-16T05:17:51;2.67;;;2.47;;
17372;SDS011;8803;48.116;11.590;2023-04-16T05:20:09;2.80;;;2.60;;
17372;SDS011;8803;48.116;11.590;2023-04-16T05:22:13;2.60;;;2.20;;
17372;SDS011;8803;48.116;11.590;2023-04-16T05:24:25;2.40;;;2.20;;
17372;SDS011;8803;48.116;11.590;2023-04-16T05:26:29;2.47;;;2.27;;
17372;SDS011;8803;48.116;11.590;2023-04-16T05:28:33;3.77;;;2.60;;
17372;SDS011;8803;48.116;11.590;2023-04-16T05:30:37;2.53;;;2.33;;
17372;SDS011;8803;48.116;11.590;2023-04-16T05:32:49;2.50;;;2.30;;
17372;SDS011;8803;48.116;11.590;2023-04-16T05:34:53;2.43;;;2.23;;
17372;SDS011;8803;48.116;11.590;2023-04-16T05:36:57;2.43;;;2.23;;
17372;SDS011;8803;48.116;11.590;2023-04-16T05:39:01;2.30;;;2.10;;
17372;SDS011;8803;48.116;11.590;2023-04-16T05:41:06;2.63;;;2.30;;
17372;SDS011;8803;48.116;11.590;2023-04-16T05:43:18;2.50;;;2.30;;
17372;SDS011;8803;48.116;11.590;2023-04-16T05:45:22;2.10;;;1.90;;
17372;SDS011;8803;48.116;11.590;2023-04-16T05:47:26;1.90;;;1.80;;
17372;SDS011;8803;48.116;11.590;2023-04-16T05:49:29;2.87;;;2.10;;
17372;SDS011;8803;48.116;11.590;2023-04-16T05:51:33;1.90;;;1.80;;
17372;SDS011;8803;48.116;11.590;2023-04-16T05:53:37;2.33;;;2.13;;
17372;SDS011;8803;48.116;11.590;2023-04-16T05:55:41;1.50;;;1.40;;
17372;SDS011;8803;48.116;11.590;2023-04-16T05:57:46;1.67;;;1.57;;
17372;SDS011;8803;48.116;11.590;2023-04-16T05:59:59;2.27;;;2.07;;
17372;SDS011;8803;48.116;11.590;2023-04-16T06:02:03;1.80;;;1.70;;
17372;SDS011;8803;48.116;11.590;2023-04-16T06:04:16;1.80;;;1.50;;
17372;SDS011;8803;48.116;11.590;2023-04-16T06:06:20;1.60;;;1.50;;
17372;SDS011;8803;48.116;11.590;2023-04-16T06:08:33;1.60;;;1.50;;
17372;SDS011;8803;48.116;11.590;2023-04-16T06:10:36;1.43;;;1.33;;
17372;SDS011;8803;48.116;11.590;2023-04-16T06:14:52;1.40;;;1.30;;
17372;SDS011;8803;48.116;11.590;2023-04-16T06:16:56;2.27;;;1.53;;
17372;SDS011;8803;48.116;11.590;2023-04-16T06:19:00;1.40;;;1.30;;
17372;SDS011;8803;48.116;11.590;2023-04-16T06:21:03;1.70;;;1.40;;
17372;SDS011;8803;48.116;11.590;2023-04-16T06:23:16;1.40;;;1.20;;
17372;SDS011;8803;48.116;11.590;2023-04-16T06:25:20;1.47;;;1.13;;
17372;SDS011;8803;48.116;11.590;2023-04-16T06:27:24;1.00;;;1.00;;
17372;SDS011;8803;48.116;11.590;2023-04-16T06:29:28;1.30;;;1.20;;
17372;SDS011;8803;48.116;11.590;2023-04-16T06:31:31;1.10;;;1.00;;
17372;SDS011;8803;48.116;11.590;2023-04-16T06:33:35;1.03;;;0.93;;
17372;SDS011;8803;48.116;11.590;2023-04-16T06:35:39;1.10;;;1.00;;
17372;SDS011;8803;48.116;11.590;2023-04-16T06:37:53;1.10;;;0.90;;
17372;SDS011;8803;48.116;11.590;2023-04-16T06:39:57;0.97;;;0.97;;
17372;SDS011;8803;48.116;11.590;2023-04-16T06:42:01;0.80;;;0.80;;
17372;SDS011;8803;48.116;11.590;2023-04-16T06:44:15;0.70;;;0.70;;
17372;SDS011;8803;48.116;11.590;2023-04-16T06:46:19;0.83;;;0.80;;
17372;SDS011;8803;48.116;11.590;2023-04-16T06:48:33;0.87;;;0.87;;
17372;SDS011;8803;48.116;11.590;2023-04-16T06:50:37;1.00;;;0.90;;
17372;SDS011;8803;48.116;11.590;2023-04-16T06:52:41;0.90;;;0.90;;
17372;SDS011;8803;48.116;11.590;2023-04-16T06:54:57;0.80;;;0.70;;
17372;SDS011;8803;48.116;11.590;2023-04-16T06:57:00;1.00;;;0.80;;
17372;SDS011;8803;48.116;11.590;2023-04-16T06:59:04;1.67;;;0.73;;
17372;SDS011;8803;48.116;11.590;2023-04-16T07:03:19;0.50;;;0.50;;
17372;SDS011;8803;48.116;11.590;2023-04-16T07:05:23;0.60;;;0.60;;
17372;SDS011;8803;48.116;11.590;2023-04-16T07:07:27;0.60;;;0.60;;
17372;SDS011;8803;48.116;11.590;2023-04-16T07:09:31;0.47;;;0.47;;
17372;SDS011;8803;48.116;11.590;2023-04-16T07:11:35;0.50;;;0.50;;
17372;SDS011;8803;48.116;11.590;2023-04-16T07:13:39;1.17;;;0.50;;
17372;SDS011;8803;48.116;11.590;2023-04-16T07:15:51;0.50;;;0.50;;
17372;SDS011;8803;48.116;11.590;2023-04-16T07:17:55;0.40;;;0.40;;
17372;SDS011;8803;48.116;11.590;2023-04-16T07:19:59;0.40;;;0.40;;
17372;SDS011;8803;48.116;11.590;2023-04-16T07:22:03;0.50;;;0.50;;
17372;SDS011;8803;48.116;11.590;2023-04-16T07:24:15;0.50;;;0.50;;
17372;SDS011;8803;48.116;11.590;2023-04-16T07:26:19;1.10;;;0.90;;
17372;SDS011;8803;48.116;11.590;2023-04-16T07:28:23;0.70;;;0.70;;
17372;SDS011;8803;48.116;11.590;2023-04-16T07:30:27;0.47;;;0.47;;
17372;SDS011;8803;48.116;11.590;2023-04-16T07:32:33;0.30;;;0.30;;
17372;SDS011;8803;48.116;11.590;2023-04-16T07:34:37;0.50;;;0.40;;
17372;SDS011;8803;48.116;11.590;2023-04-16T07:36:49;0.40;;;0.40;;
17372;SDS011;8803;48.116;11.590;2023-04-16T07:38:53;0.40;;;0.40;;
17372;SDS011;8803;48.116;11.590;2023-04-16T07:40:57;0.50;;;0.50;;
17372;SDS011;8803;48.116;11.590;2023-04-16T07:43:12;0.60;;;0.60;;
17372;SDS011;8803;48.116;11.590;2023-04-16T07:45:17;0.60;;;0.60;;
17372;SDS011;8803;48.116;11.590;2023-04-16T07:47:21;0.63;;;0.53;;
17372;SDS011;8803;48.116;11.590;2023-04-16T07:49:26;1.13;;;0.70;;
17372;SDS011;8803;48.116;11.590;2023-04-16T07:51:40;0.77;;;0.77;;
17372;SDS011;8803;48.116;11.590;2023-04-16T07:53:44;1.37;;;0.80;;
17372;SDS011;8803;48.116;11.590;2023-04-16T07:55:57;0.83;;;0.60;;
17372;SDS011;8803;48.116;11.590;2023-04-16T07:58:01;0.50;;;0.50;;
17372;SDS011;8803;48.116;11.590;2023-04-16T08:00:07;0.50;;;0.50;;
17372;SDS011;8803;48.116;11.590;2023-04-16T08:02:24;0.77;;;0.50;;
17372;SDS011;8803;48.116;11.590;2023-04-16T08:04:28;0.50;;;0.43;;
17372;SDS011;8803;48.116;11.590;2023-04-16T08:06:42;0.53;;;0.50;;
17372;SDS011;8803;48.116;11.590;2023-04-16T08:08:46;0.47;;;0.47;;
17372;SDS011;8803;48.116;11.590;2023-04-16T08:10:59;0.60;;;0.40;;
17372;SDS011;8803;48.116;11.590;2023-04-16T08:13:02;0.30;;;0.30;;
17372;SDS011;8803;48.116;11.590;2023-04-16T08:15:18;0.60;;;0.57;;
17372;SDS011;8803;48.116;11.590;2023-04-16T08:17:22;0.63;;;0.50;;
17372;SDS011;8803;48.116;11.590;2023-04-16T08:19:27;0.50;;;0.50;;
17372;SDS011;8803;48.116;11.590;2023-04-16T08:21:31;0.57;;;0.50;;
17372;SDS011;8803;48.116;11.590;2023-04-16T08:23:47;0.57;;;0.40;;
17372;SDS011;8803;48.116;11.590;2023-04-16T08:25:51;0.40;;;0.40;;
17372;SDS011;8803;48.116;11.590;2023-04-16T08:27:55;0.47;;;0.40;;
17372;SDS011;8803;48.116;11.590;2023-04-16T08:29:59;0.47;;;0.40;;
17372;SDS011;8803;48.116;11.590;2023-04-16T08:32:13;0.80;;;0.80;;
17372;SDS011;8803;48.116;11.590;2023-04-16T08:34:18;0.77;;;0.70;;
17372;SDS011;8803;48.116;11.590;2023-04-16T08:36:33;0.77;;;0.70;;
17372;SDS011;8803;48.116;11.590;2023-04-16T08:38:37;0.50;;;0.50;;
17372;SDS011;8803;48.116;11.590;2023-04-16T08:40:41;0.40;;;0.40;;
17372;SDS011;8803;48.116;11.590;2023-04-16T08:42:49;0.50;;;0.50;;
17372;SDS011;8803;48.116;11.590;2023-04-16T08:47:10;0.60;;;0.43;;
17372;SDS011;8803;48.116;11.590;2023-04-16T08:49:16;0.93;;;0.40;;
17372;SDS011;8803;48.116;11.590;2023-04-16T08:51:32;0.40;;;0.40;;
17372;SDS011;8803;48.116;11.590;2023-04-16T08:53:47;0.40;;;0.30;;
17372;SDS011;8803;48.116;11.590;2023-04-16T08:55:55;0.50;;;0.50;;
17372;SDS011;8803;48.116;11.590;2023-04-16T08:58:13;0.63;;;0.50;;
17372;SDS011;8803;48.116;11.590;2023-04-16T09:00:19;0.87;;;0.60;;
17372;SDS011;8803;48.116;11.590;2023-04-16T09:02:22;0.77;;;0.50;;
17372;SDS011;8803;48.116;11.590;2023-04-16T09:04:39;1.20;;;0.77;;
17372;SDS011;8803;48.116;11.590;2023-04-16T09:06:43;0.80;;;0.70;;
17372;SDS011;8803;48.116;11.590;2023-04-16T09:08:49;0.50;;;0.50;;
17372;SDS011;8803;48.116;11.590;2023-04-16T09:11:03;0.63;;;0.47;;
17372;SDS011;8803;48.116;11.590;2023-04-16T09:13:08;1.10;;;0.50;;
17372;SDS011;8803;48.116;11.590;2023-04-16T09:15:21;0.97;;;0.60;;
17372;SDS011;8803;48.116;11.590;2023-04-16T09:17:26;0.77;;;0.50;;
17372;SDS011;8803;48.116;11.590;2023-04-16T09:19:30;0.80;;;0.63;;
17372;SDS011;8803;48.116;11.590;2023-04-16T09:21:34;0.63;;;0.60;;
17372;SDS011;8803;48.116;11.590;2023-04-16T09:23:48;0.50;;;0.50;;
17372;SDS011;8803;48.116;11.590;2023-04-16T09:25:54;0.50;;;0.50;;
17372;SDS011;8803;48.116;11.590;2023-04-16T09:27:58;0.37;;;0.37;;
17372;SDS011;8803;48.116;11.590;2023-04-16T09:30:18;0.60;;;0.50;;
17372;SDS011;8803;48.116;11.590;2023-04-16T09:32:24;0.50;;;0.50;;
17372;SDS011;8803;48.116;11.590;2023-04-16T09:34:28;0.50;;;0.43;;
17372;SDS011;8803;48.116;11.590;2023-04-16T09:36:34;0.60;;;0.60;;
17372;SDS011;8803;48.116;11.590;2023-04-16T09:38:45;0.43;;;0.43;;
17372;SDS011;8803;48.116;11.590;2023-04-16T09:41:07;1.60;;;0.73;;
17372;SDS011;8803;48.116;11.590;2023-04-16T09:45:22;1.20;;;0.60;;
17372;SDS011;8803;48.116;11.590;2023-04-16T09:47:38;1.13;;;1.03;;
17372;SDS011;8803;48.116;11.590;2023-04-16T09:49:49;0.67;;;0.60;;
17372;SDS011;8803;48.116;11.590;2023-04-16T09:51:53;0.40;;;0.40;;
17372;SDS011;8803;48.116;11.590;2023-04-16T09:54:07;0.70;;;0.50;;
17372;SDS011;8803;48.116;11.590;2023-04-16T09:58:22;0.70;;;0.60;;
17372;SDS011;8803;48.116;11.590;2023-04-16T10:00:26;0.63;;;0.50;;
17372;SDS011;8803;48.116;11.590;2023-04-16T10:04:46;0.53;;;0.50;;
17372;SDS011;8803;48.116;11.590;2023-04-16T10:07:01;0.50;;;0.40;;
17372;SDS011;8803;48.116;11.590;2023-04-16T10:09:06;0.40;;;0.40;;
17372;SDS011;8803;48.116;11.590;2023-04-16T10:11:10;0.50;;;0.43;;
17372;SDS011;8803;48.116;11.590;2023-04-16T10:13:24;1.73;;;0.50;;
17372;SDS011;8803;48.116;11.590;2023-04-16T10:15:28;0.40;;;0.40;;
17372;SDS011;8803;48.116;11.590;2023-04-16T10:17:32;0.53;;;0.53;;
17372;SDS011;8803;48.116;11.590;2023-04-16T10:19:36;0.40;;;0.40;;
17372;SDS011;8803;48.116;11.590;2023-04-16T10:21:41;0.40;;;0.40;;
17372;SDS011;8803;48.116;11.590;2023-04-16T10:23:58;1.03;;;0.53;;
17372;SDS011;8803;48.116;11.590;2023-04-16T10:26:03;0.70;;;0.50;;
17372;SDS011;8803;48.116;11.590;2023-04-16T10:28:07;0.40;;;0.40;;
17372;SDS011;8803;48.116;11.590;2023-04-16T10:30:22;0.87;;;0.57;;
17372;SDS011;8803;48.116;11.590;2023-04-16T10:32:27;0.30;;;0.30;;
17372;SDS011;8803;48.116;11.590;2023-04-16T10:34:40;0.47;;;0.47;;
17372;SDS011;8803;48.116;11.590;2023-04-16T10:36:46;0.67;;;0.43;;
17372;SDS011;8803;48.116;11.590;2023-04-16T10:38:57;0.60;;;0.60;;
17372;SDS011;8803;48.116;11.590;2023-04-16T10:41:07;0.40;;;0.40;;
17372;SDS011;8803;48.116;11.590;2023-04-16T10:43:11;0.53;;;0.53;;
17372;SDS011;8803;48.116;11.590;2023-04-16T10:45:31;0.53;;;0.53;;
17372;SDS011;8803;48.116;11.590;2023-04-16T10:47:39;0.67;;;0.67;;
17372;SDS011;8803;48.116;11.590;2023-04-16T10:51:55;0.43;;;0.43;;
17372;SDS011;8803;48.116;11.590;2023-04-16T10:54:02;0.83;;;0.50;;
17372;SDS011;8803;48.116;11.590;2023-04-16T10:56:16;0.50;;;0.50;;
17372;SDS011;8803;48.116;11.590;2023-04-16T10:58:27;0.73;;;0.73;;
17372;SDS011;8803;48.116;11.590;2023-04-16T11:00:32;0.47;;;0.47;;
17372;SDS011;8803;48.116;11.590;2023-04-16T11:02:52;0.63;;;0.60;;
17372;SDS011;8803;48.116;11.590;2023-04-16T11:07:13;1.00;;;0.73;;
17372;SDS011;8803;48.116;11.590;2023-04-16T11:13:59;0.40;;;0.40;;
17372;SDS011;8803;48.116;11.590;2023-04-16T11:16:04;0.40;;;0.40;;
17372;SDS011;8803;48.116;11.590;2023-04-16T11:18:18;0.80;;;0.70;;
17372;SDS011;8803;48.116;11.590;2023-04-16T11:20:22;0.70;;;0.70;;
17372;SDS011;8803;48.116;11.590;2023-04-16T11:24:39;2.07;;;1.30;;
17372;SDS011;8803;48.116;11.590;2023-04-16T11:26:42;0.37;;;0.37;;
17372;SDS011;8803;48.116;11.590;2023-04-16T11:28:46;0.50;;;0.50;;
17372;SDS011;8803;48.116;11.590;2023-04-16T11:30:50;0.40;;;0.40;;
17372;SDS011;8803;48.116;11.590;2023-04-16T11:32:54;1.00;;;0.73;;
17372;SDS011;8803;48.116;11.590;2023-04-16T11:35:12;1.63;;;0.70;;
17372;SDS011;8803;48.116;11.590;2023-04-16T11:37:19;0.70;;;0.70;;
17372;SDS011;8803;48.116;11.590;2023-04-16T11:39:24;0.80;;;0.70;;
17372;SDS011;8803;48.116;11.590;2023-04-16T11:41:28;1.37;;;0.90;;
17372;SDS011;8803;48.116;11.590;2023-04-16T11:43:41;1.20;;;1.10;;
17372;SDS011;8803;48.116;11.590;2023-04-16T11:45:54;0.90;;;0.80;;
17372;SDS011;8803;48.116;11.590;2023-04-16T11:48:10;0.40;;;0.40;;
17372;SDS011;8803;48.116;11.590;2023-04-16T11:50:18;1.20;;;0.70;;
17372;SDS011;8803;48.116;11.590;2023-04-16T11:52:26;0.70;;;0.70;;
17372;SDS011;8803;48.116;11.590;2023-04-16T11:54:40;0.40;;;0.40;;
17372;SDS011;8803;48.116;11.590;2023-04-16T11:56:46;0.40;;;0.40;;
17372;SDS011;8803;48.116;11.590;2023-04-16T11:59:05;0.63;;;0.60;;
17372;SDS011;8803;48.116;11.590;2023-04-16T12:03:36;0.37;;;0.37;;
17372;SDS011;8803;48.116;11.590;2023-04-16T12:05:42;0.40;;;0.40;;
17372;SDS011;8803;48.116;11.590;2023-04-16T12:07:47;0.77;;;0.50;;
17372;SDS011;8803;48.116;11.590;2023-04-16T12:10:03;0.50;;;0.50;;
17372;SDS011;8803;48.116;11.590;2023-04-16T12:12:05;0.50;;;0.50;;
17372;SDS011;8803;48.116;11.590;2023-04-16T12:14:11;0.77;;;0.70;;
17372;SDS011;8803;48.116;11.590;2023-04-16T12:16:24;0.60;;;0.60;;
17372;SDS011;8803;48.116;11.590;2023-04-16T12:18:28;0.50;;;0.50;;
17372;SDS011;8803;48.116;11.590;2023-04-16T12:20:38;0.63;;;0.60;;
17372;SDS011;8803;48.116;11.590;2023-04-16T12:22:43;0.60;;;0.60;;
17372;SDS011;8803;48.116;11.590;2023-04-16T12:24:59;0.60;;;0.60;;
17372;SDS011;8803;48.116;11.590;2023-04-16T12:27:04;0.83;;;0.83;;
17372;SDS011;8803;48.116;11.590;2023-04-16T12:29:15;0.73;;;0.73;;
17372;SDS011;8803;48.116;11.590;2023-04-16T12:31:33;0.80;;;0.80;;
17372;SDS011;8803;48.116;11.590;2023-04-16T12:34:00;0.77;;;0.77;;
17372;SDS011;8803;48.116;11.590;2023-04-16T12:36:16;0.87;;;0.80;;
17372;SDS011;8803;48.116;11.590;2023-04-16T12:38:20;1.50;;;0.90;;
17372;SDS011;8803;48.116;11.590;2023-04-16T12:40:25;0.73;;;0.60;;
17372;SDS011;8803;48.116;11.590;2023-04-16T12:42:38;0.80;;;0.80;;
17372;SDS011;8803;48.116;11.590;2023-04-16T12:46:55;1.13;;;0.70;;
17372;SDS011;8803;48.116;11.590;2023-04-16T12:48:59;0.67;;;0.60;;
17372;SDS011;8803;48.116;11.590;2023-04-16T12:53:14;0.57;;;0.57;;
17372;SDS011;8803;48.116;11.590;2023-04-16T12:55:18;0.70;;;0.67;;
17372;SDS011;8803;48.116;11.590;2023-04-16T12:57:22;0.80;;;0.60;;
17372;SDS011;8803;48.116;11.590;2023-04-16T12:59:28;0.57;;;0.57;;
17372;SDS011;8803;48.116;11.590;2023-04-16T13:01:32;0.80;;;0.80;;
17372;SDS011;8803;48.116;11.590;2023-04-16T13:03:45;0.73;;;0.67;;
17372;SDS011;8803;48.116;11.590;2023-04-16T13:05:49;0.70;;;0.67;;
17372;SDS011;8803;48.116;11.590;2023-04-16T13:07:53;0.90;;;0.70;;
17372;SDS011;8803;48.116;11.590;2023-04-16T13:09:57;1.30;;;0.70;;
17372;SDS011;8803;48.116;11.590;2023-04-16T13:12:01;1.50;;;0.63;;
17372;SDS011;8803;48.116;11.590;2023-04-16T13:14:05;0.70;;;0.63;;
17372;SDS011;8803;48.116;11.590;2023-04-16T13:16:18;0.70;;;0.70;;
17372;SDS011;8803;48.116;11.590;2023-04-16T13:18:21;0.80;;;0.70;;
17372;SDS011;8803;48.116;11.590;2023-04-16T13:20:25;1.17;;;0.83;;
17372;SDS011;8803;48.116;11.590;2023-04-16T13:22:29;1.03;;;0.87;;
17372;SDS011;8803;48.116;11.590;2023-04-16T13:24:44;1.10;;;0.83;;
17372;SDS011;8803;48.116;11.590;2023-04-16T13:26:48;1.60;;;0.97;;
17372;SDS011;8803;48.116;11.590;2023-04-16T13:28:53;0.63;;;0.63;;